Time;durP1;ratioP1;P1;durP2;ratioP2;P2;SDS_P1;SDS_P2;PMS_P1;PMS_P2;Temp;Humidity;BMP_temperature;BMP_pressure;BME280_temperature;BME280_humidity;BME280_pressure;Samples;Min_cycle;Max_cycle;Signal;HPM_P1;HPM_P2
2023/06/26 00:01:43;;;;;;;4.53;4.13;;;;;;;;;;4763914;30;20052;-83
2023/06/26 00:04:14;;;;;;;4.32;4.03;;;;;;;;;;4752245;30;20048;-83
2023/06/26 00:06:41;;;;;;;4.10;3.78;;;;;;;;;;4759047;30;20052;-83
2023/06/26 00:09:09;;;;;;;4.03;3.72;;;;;;;;;;4757170;30;20090;-83
2023/06/26 00:11:36;;;;;;;4.13;3.85;;;;;;;;;;4749330;30;20056;-82
2023/06/26 00:14:03;;;;;;;4.70;4.30;;;;;;;;;;4757881;30;20068;-84
2023/06/26 00:16:31;;;;;;;4.38;3.97;;;;;;;;;;4756870;30;20056;-83
2023/06/26 00:18:58;;;;;;;4.32;4.03;;;;;;;;;;4762606;30;20048;-84
2023/06/26 00:21:27;;;;;;;4.30;4.00;;;;;;;;;;4762393;30;20100;-83
2023/06/26 00:23:54;;;;;;;4.97;4.45;;;;;;;;;;4749518;30;20842;-83
2023/06/26 00:26:21;;;;;;;5.13;4.72;;;;;;;;;;4756547;30;20507;-83
2023/06/26 00:28:49;;;;;;;4.55;4.25;;;;;;;;;;4762568;30;20067;-83
2023/06/26 00:31:16;;;;;;;4.20;3.90;;;;;;;;;;4759653;30;20105;-83
2023/06/26 00:33:43;;;;;;;4.47;4.18;;;;;;;;;;4749116;30;20059;-83
2023/06/26 00:36:11;;;;;;;5.05;4.65;;;;;;;;;;4759271;30;20089;-83
2023/06/26 00:38:38;;;;;;;4.32;4.03;;;;;;;;;;4760091;30;20123;-83
2023/06/26 00:41:12;;;;;;;4.28;3.97;;;;;;;;;;4762720;30;20083;-83
2023/06/26 00:43:40;;;;;;;4.25;3.95;;;;;;;;;;4754128;30;20060;-83
2023/06/26 00:46:10;;;;;;;4.40;4.00;;;;;;;;;;4761061;30;20112;-82
2023/06/26 00:48:38;;;;;;;4.30;4.00;;;;;;;;;;4759696;30;20067;-84
2023/06/26 00:51:06;;;;;;;4.20;3.90;;;;;;;;;;4755635;30;20059;-83
2023/06/26 00:53:33;;;;;;;4.38;4.00;;;;;;;;;;4748044;30;20067;-83
2023/06/26 00:56:02;;;;;;;4.60;4.30;;;;;;;;;;4799815;24;21508;-76
2023/06/26 00:58:31;;;;;;;4.65;4.35;;;;;;;;;;4746361;30;20423;-76
2023/06/26 01:01:00;;;;;;;4.38;4.07;;;;;;;;;;4744340;30;20066;-76
2023/06/26 01:03:28;;;;;;;4.57;4.18;;;;;;;;;;4755274;24;20130;-76
2023/06/26 01:05:57;;;;;;;4.82;4.43;;;;;;;;;;4735824;30;20053;-76
2023/06/26 01:08:24;;;;;;;4.50;4.10;;;;;;;;;;4740112;30;20040;-77
2023/06/26 01:10:52;;;;;;;4.43;4.13;;;;;;;;;;4741655;30;20059;-77
2023/06/26 01:13:20;;;;;;;4.78;4.38;;;;;;;;;;4741725;30;20381;-76
2023/06/26 01:15:47;;;;;;;4.30;4.00;;;;;;;;;;4742727;30;20299;-77
2023/06/26 01:18:16;;;;;;;4.68;4.28;;;;;;;;;;4742583;30;20122;-77
2023/06/26 01:20:44;;;;;;;4.68;4.28;;;;;;;;;;4746070;30;20466;-77
2023/06/26 01:23:22;;;;;;;4.43;4.13;;;;;;;;;;4757997;30;20450;-77
2023/06/26 01:25:50;;;;;;;4.88;4.53;;;;;;;;;;4744443;30;20509;-77
2023/06/26 01:28:18;;;;;;;4.50;4.20;;;;;;;;;;4742924;30;20542;-77
2023/06/26 01:30:46;;;;;;;4.72;4.43;;;;;;;;;;4742520;30;20384;-77
2023/06/26 01:33:14;;;;;;;4.43;4.10;;;;;;;;;;4738689;30;20098;-76
2023/06/26 01:35:41;;;;;;;5.80;4.60;;;;;;;;;;4744107;30;20063;-77
2023/06/26 01:38:16;;;;;;;4.72;4.30;;;;;;;;;;4742883;30;20102;-77
2023/06/26 01:40:44;;;;;;;4.20;3.90;;;;;;;;;;4743362;30;20118;-76
2023/06/26 01:43:18;;;;;;;4.63;4.25;;;;;;;;;;4743386;30;20062;-77
2023/06/26 01:45:48;;;;;;;5.32;4.82;;;;;;;;;;4743895;30;20059;-76
2023/06/26 01:48:17;;;;;;;4.68;4.28;;;;;;;;;;4743979;30;20052;-77
2023/06/26 01:50:45;;;;;;;5.05;4.65;;;;;;;;;;4743466;30;20071;-77
2023/06/26 01:53:13;;;;;;;4.40;4.10;;;;;;;;;;4739260;30;20137;-77
2023/06/26 01:55:43;;;;;;;4.13;3.83;;;;;;;;;;4741517;30;20135;-77
2023/06/26 01:58:11;;;;;;;4.20;3.90;;;;;;;;;;4758363;30;20060;-76
2023/06/26 02:00:38;;;;;;;5.00;4.05;;;;;;;;;;4755646;30;20113;-77
2023/06/26 02:03:06;;;;;;;4.22;3.92;;;;;;;;;;4756245;30;20040;-77
2023/06/26 02:05:34;;;;;;;4.28;3.88;;;;;;;;;;4742644;30;20062;-76
2023/06/26 02:08:02;;;;;;;4.07;3.78;;;;;;;;;;4743475;30;20133;-77
2023/06/26 02:10:30;;;;;;;3.85;3.65;;;;;;;;;;4738886;30;20077;-77
2023/06/26 02:12:58;;;;;;;4.00;3.70;;;;;;;;;;4738802;30;20606;-76
2023/06/26 02:15:25;;;;;;;4.40;4.10;;;;;;;;;;4744926;30;20059;-77
2023/06/26 02:17:53;;;;;;;4.10;3.80;;;;;;;;;;4743396;30;20060;-77
2023/06/26 02:20:21;;;;;;;4.20;3.90;;;;;;;;;;4742058;30;20154;-76
2023/06/26 02:22:48;;;;;;;4.20;3.90;;;;;;;;;;4743368;30;20056;-77
2023/06/26 02:25:16;;;;;;;4.68;4.32;;;;;;;;;;4743833;30;20052;-76
2023/06/26 02:27:44;;;;;;;4.10;3.90;;;;;;;;;;4741583;30;20137;-76
2023/06/26 02:30:12;;;;;;;5.13;4.60;;;;;;;;;;4742087;30;20106;-76
2023/06/26 02:32:39;;;;;;;5.00;4.60;;;;;;;;;;4744564;30;20052;-77
2023/06/26 02:35:07;;;;;;;4.68;4.28;;;;;;;;;;4744941;30;20084;-76
2023/06/26 02:37:34;;;;;;;4.28;3.97;;;;;;;;;;4744009;30;20052;-76
2023/06/26 02:40:03;;;;;;;4.50;4.10;;;;;;;;;;4743471;30;22439;-77
2023/06/26 02:42:32;;;;;;;4.10;3.80;;;;;;;;;;4745508;30;20136;-76
2023/06/26 02:44:59;;;;;;;4.25;3.95;;;;;;;;;;4741030;30;20056;-76
2023/06/26 02:47:27;;;;;;;4.75;4.32;;;;;;;;;;4753098;30;20079;-77
2023/06/26 02:49:55;;;;;;;4.43;4.13;;;;;;;;;;4744131;30;20082;-77
2023/06/26 02:52:22;;;;;;;4.50;4.20;;;;;;;;;;4745523;30;20055;-76
2023/06/26 02:54:50;;;;;;;4.57;4.18;;;;;;;;;;4742539;30;20426;-76
2023/06/26 02:57:18;;;;;;;5.15;4.20;;;;;;;;;;4742785;30;20422;-76
2023/06/26 02:59:45;;;;;;;4.05;3.75;;;;;;;;;;4739656;30;20048;-76
2023/06/26 03:02:14;;;;;;;4.30;4.00;;;;;;;;;;4743853;30;20704;-76
2023/06/26 03:04:45;;;;;;;4.90;4.60;;;;;;;;;;4742142;30;20066;-77
2023/06/26 03:07:14;;;;;;;4.95;4.55;;;;;;;;;;4755781;30;20067;-77
2023/06/26 03:09:42;;;;;;;4.95;4.50;;;;;;;;;;4740860;30;20056;-76
2023/06/26 03:12:09;;;;;;;5.53;4.70;;;;;;;;;;4740863;30;20512;-77
2023/06/26 03:14:37;;;;;;;5.20;4.70;;;;;;;;;;4747178;30;20494;-76
2023/06/26 03:17:07;;;;;;;4.28;3.97;;;;;;;;;;4742273;30;20052;-77
2023/06/26 03:19:35;;;;;;;4.72;4.32;;;;;;;;;;4741830;30;20058;-76
2023/06/26 03:22:29;;;;;;;4.10;3.70;;;;;;;;;;4748185;30;20056;-76
2023/06/26 03:24:56;;;;;;;5.05;4.65;;;;;;;;;;4747523;30;20090;-77
2023/06/26 03:27:23;;;;;;;4.47;4.15;;;;;;;;;;4761132;30;20143;-77
2023/06/26 03:29:52;;;;;;;4.55;4.15;;;;;;;;;;4746121;30;20107;-76
2023/06/26 03:32:21;;;;;;;4.07;3.78;;;;;;;;;;4755963;30;20451;-77
2023/06/26 03:34:49;;;;;;;4.55;4.15;;;;;;;;;;4744232;30;20052;-77
2023/06/26 03:37:16;;;;;;;4.38;3.80;;;;;;;;;;4744844;30;20052;-77
2023/06/26 03:39:44;;;;;;;6.35;3.92;;;;;;;;;;4745861;30;20120;-77
2023/06/26 03:42:11;;;;;;;4.22;3.92;;;;;;;;;;4756674;30;20056;-77
2023/06/26 03:44:39;;;;;;;4.20;3.90;;;;;;;;;;4743654;30;20127;-76
2023/06/26 03:47:06;;;;;;;7.57;4.35;;;;;;;;;;4758983;30;20056;-77
2023/06/26 03:49:35;;;;;;;4.25;3.95;;;;;;;;;;4759441;30;20048;-77
2023/06/26 03:52:04;;;;;;;3.95;3.65;;;;;;;;;;4744342;30;20059;-77
2023/06/26 03:54:33;;;;;;;4.20;3.90;;;;;;;;;;4747242;30;20056;-77
2023/06/26 03:57:02;;;;;;;4.20;3.90;;;;;;;;;;4745827;30;20048;-77
2023/06/26 03:59:30;;;;;;;4.45;4.15;;;;;;;;;;4756511;30;20080;-77
2023/06/26 04:01:58;;;;;;;4.35;4.05;;;;;;;;;;4756870;30;20055;-77
2023/06/26 04:04:26;;;;;;;4.43;4.13;;;;;;;;;;4745788;30;20064;-77
2023/06/26 04:06:54;;;;;;;4.82;4.43;;;;;;;;;;4757318;30;20052;-77
2023/06/26 04:09:22;;;;;;;3.95;3.67;;;;;;;;;;4759849;30;20067;-77
2023/06/26 04:11:49;;;;;;;4.15;3.90;;;;;;;;;;4760305;30;20054;-77
2023/06/26 04:14:17;;;;;;;4.97;4.57;;;;;;;;;;4747156;30;20048;-77
2023/06/26 04:16:45;;;;;;;4.60;4.20;;;;;;;;;;4747566;30;20519;-78
2023/06/26 04:19:13;;;;;;;5.43;4.70;;;;;;;;;;4742740;30;20051;-78
2023/06/26 04:21:41;;;;;;;4.18;3.88;;;;;;;;;;4746796;30;20068;-77
2023/06/26 04:24:08;;;;;;;4.53;4.22;;;;;;;;;;4744250;30;20132;-78
2023/06/26 04:26:36;;;;;;;4.45;4.15;;;;;;;;;;4743397;30;20088;-78
2023/06/26 04:29:03;;;;;;;4.50;4.10;;;;;;;;;;4738970;30;20105;-77
2023/06/26 04:31:31;;;;;;;5.07;4.68;;;;;;;;;;4744211;30;20087;-78
2023/06/26 04:33:59;;;;;;;4.40;4.10;;;;;;;;;;4744790;30;20419;-77
2023/06/26 04:36:28;;;;;;;4.30;3.90;;;;;;;;;;4743106;30;20829;-77
2023/06/26 04:38:56;;;;;;;3.97;3.70;;;;;;;;;;4740366;30;20949;-77
2023/06/26 04:41:29;;;;;;;4.43;3.92;;;;;;;;;;4741461;30;20415;-77
2023/06/26 04:43:56;;;;;;;3.95;3.65;;;;;;;;;;4742067;30;20415;-78
2023/06/26 04:46:24;;;;;;;4.20;3.90;;;;;;;;;;4740910;30;20138;-78
2023/06/26 04:48:52;;;;;;;4.22;3.92;;;;;;;;;;4741248;30;20387;-77
2023/06/26 04:51:20;;;;;;;4.85;4.50;;;;;;;;;;4734424;30;20088;-78
2023/06/26 04:53:48;;;;;;;4.53;4.22;;;;;;;;;;4742502;30;20040;-77
2023/06/26 04:56:15;;;;;;;5.38;4.88;;;;;;;;;;4744706;30;20121;-78
2023/06/26 04:58:43;;;;;;;4.78;4.38;;;;;;;;;;4740707;30;20135;-77
2023/06/26 05:01:13;;;;;;;5.10;4.70;;;;;;;;;;4748991;30;20044;-78
2023/06/26 05:03:41;;;;;;;4.93;4.60;;;;;;;;;;4740700;30;20071;-78
2023/06/26 05:06:09;;;;;;;4.95;4.55;;;;;;;;;;4744389;30;20056;-78
2023/06/26 05:08:36;;;;;;;4.68;4.38;;;;;;;;;;4744024;30;20068;-78
2023/06/26 05:11:04;;;;;;;4.82;4.43;;;;;;;;;;4744389;30;20075;-77
2023/06/26 05:13:31;;;;;;;5.07;4.68;;;;;;;;;;4742190;30;20084;-78
2023/06/26 05:15:59;;;;;;;5.55;5.10;;;;;;;;;;4745570;30;20056;-78
2023/06/26 05:18:27;;;;;;;6.10;5.22;;;;;;;;;;4745314;30;20075;-78
2023/06/26 05:20:54;;;;;;;5.47;5.05;;;;;;;;;;4745169;30;20066;-78
2023/06/26 05:23:24;;;;;;;5.20;4.68;;;;;;;;;;4744202;30;20052;-78
2023/06/26 05:25:52;;;;;;;5.03;4.70;;;;;;;;;;4745037;30;20153;-78
2023/06/26 05:28:20;;;;;;;5.40;5.00;;;;;;;;;;4745037;30;20579;-77
2023/06/26 05:30:47;;;;;;;5.82;5.20;;;;;;;;;;4744500;30;20086;-78
2023/06/26 05:33:15;;;;;;;5.90;5.50;;;;;;;;;;4739814;30;20051;-78
2023/06/26 05:35:43;;;;;;;6.70;6.10;;;;;;;;;;4746866;30;20060;-78
2023/06/26 05:38:13;;;;;;;6.07;5.57;;;;;;;;;;4742726;30;20060;-77
2023/06/26 05:40:41;;;;;;;5.63;5.22;;;;;;;;;;4743193;30;20052;-78
2023/06/26 05:43:08;;;;;;;5.10;4.60;;;;;;;;;;4742334;30;20056;-78
2023/06/26 05:45:36;;;;;;;5.78;5.28;;;;;;;;;;4745975;30;20502;-78
2023/06/26 05:48:03;;;;;;;5.47;5.07;;;;;;;;;;4746291;30;20056;-78
2023/06/26 05:50:31;;;;;;;5.97;5.47;;;;;;;;;;4741056;30;20157;-78
2023/06/26 05:52:59;;;;;;;5.40;4.90;;;;;;;;;;4744321;30;20117;-76
2023/06/26 05:55:27;;;;;;;5.32;4.93;;;;;;;;;;4742190;30;20058;-78
2023/06/26 05:57:56;;;;;;;5.55;5.15;;;;;;;;;;4737362;30;20040;-77
2023/06/26 06:00:25;;;;;;;4.78;4.45;;;;;;;;;;4733810;30;20059;-77
2023/06/26 06:02:54;;;;;;;5.22;4.72;;;;;;;;;;4732902;30;20067;-77
2023/06/26 06:05:22;;;;;;;5.18;4.78;;;;;;;;;;4729670;30;20059;-78
2023/06/26 06:07:50;;;;;;;5.20;4.70;;;;;;;;;;4725181;30;20125;-77
2023/06/26 06:10:17;;;;;;;5.00;4.60;;;;;;;;;;4743182;30;20396;-77
2023/06/26 06:12:45;;;;;;;5.30;4.90;;;;;;;;;;4746305;30;20055;-77
2023/06/26 06:15:12;;;;;;;5.05;4.65;;;;;;;;;;4747779;30;20063;-78
2023/06/26 06:17:39;;;;;;;4.50;4.10;;;;;;;;;;4747595;30;20131;-78
2023/06/26 06:20:07;;;;;;;4.40;4.10;;;;;;;;;;4746612;30;20059;-77
2023/06/26 06:22:34;;;;;;;4.15;3.90;;;;;;;;;;4747510;30;20063;-78
2023/06/26 06:25:02;;;;;;;4.97;4.57;;;;;;;;;;4746958;30;20052;-78
2023/06/26 06:27:30;;;;;;;4.60;4.30;;;;;;;;;;4748188;30;20095;-78
2023/06/26 06:29:58;;;;;;;4.47;4.18;;;;;;;;;;4746719;30;20064;-78
2023/06/26 06:32:25;;;;;;;4.90;4.50;;;;;;;;;;4747055;30;20561;-77
2023/06/26 06:34:53;;;;;;;5.50;5.00;;;;;;;;;;4744229;30;20056;-77
2023/06/26 06:37:20;;;;;;;4.90;4.60;;;;;;;;;;4745838;30;20055;-77
2023/06/26 06:39:47;;;;;;;4.20;3.90;;;;;;;;;;4746492;30;20056;-77
2023/06/26 06:42:15;;;;;;;4.47;4.18;;;;;;;;;;4746980;30;20117;-77
2023/06/26 06:44:42;;;;;;;4.68;4.32;;;;;;;;;;4745528;30;20135;-77
2023/06/26 06:47:10;;;;;;;4.28;3.97;;;;;;;;;;4747074;30;20113;-78
2023/06/26 06:49:37;;;;;;;4.57;4.25;;;;;;;;;;4747294;30;20507;-78
2023/06/26 06:52:05;;;;;;;4.13;3.85;;;;;;;;;;4746441;30;20139;-77
2023/06/26 06:54:32;;;;;;;4.43;4.13;;;;;;;;;;4746250;30;20059;-78
2023/06/26 06:57:00;;;;;;;4.10;3.90;;;;;;;;;;4750246;30;20083;-78
2023/06/26 06:59:27;;;;;;;4.35;4.05;;;;;;;;;;4750270;30;20067;-78
2023/06/26 07:01:54;;;;;;;4.60;4.20;;;;;;;;;;4750187;30;20060;-78
2023/06/26 07:04:22;;;;;;;4.88;4.22;;;;;;;;;;4771376;24;20054;-88
2023/06/26 07:06:53;;;;;;;4.63;4.32;;;;;;;;;;4753616;30;20134;-87
2023/06/26 07:09:20;;;;;;;4.43;4.00;;;;;;;;;;4762071;30;20703;-88
2023/06/26 07:11:48;;;;;;;4.07;3.80;;;;;;;;;;4758795;30;20056;-88
2023/06/26 07:14:15;;;;;;;4.32;4.05;;;;;;;;;;4753502;29;20046;-88
2023/06/26 07:16:46;;;;;;;4.20;3.90;;;;;;;;;;4767019;30;20048;-88
2023/06/26 07:19:14;;;;;;;4.82;4.43;;;;;;;;;;4765489;30;20379;-88
2023/06/26 07:22:03;;;;;;;4.82;4.47;;;;;;;;;;4755384;30;20044;-88
2023/06/26 07:24:32;;;;;;;4.38;4.07;;;;;;;;;;4750091;30;20052;-88
2023/06/26 07:27:04;;;;;;;4.57;4.28;;;;;;;;;;4755263;30;20114;-88
2023/06/26 07:29:33;;;;;;;4.30;4.00;;;;;;;;;;4745295;30;20045;-88
2023/06/26 07:32:02;;;;;;;4.40;4.10;;;;;;;;;;4767929;30;20397;-88
2023/06/26 07:34:29;;;;;;;4.03;3.80;;;;;;;;;;4765715;30;20056;-88
2023/06/26 07:36:57;;;;;;;4.63;4.28;;;;;;;;;;4761673;30;20106;-88
2023/06/26 07:39:27;;;;;;;4.38;4.07;;;;;;;;;;4765156;30;20040;-88
2023/06/26 07:41:54;;;;;;;4.03;3.72;;;;;;;;;;4775768;30;20055;-88
2023/06/26 07:44:23;;;;;;;4.30;3.90;;;;;;;;;;4761834;30;20817;-88
2023/06/26 07:46:55;;;;;;;4.00;3.80;;;;;;;;;;4759260;30;20051;-88
2023/06/26 07:49:22;;;;;;;4.20;3.85;;;;;;;;;;4766515;29;20052;-88
2023/06/26 07:51:53;;;;;;;4.13;3.90;;;;;;;;;;4754584;30;20137;-89
2023/06/26 07:54:30;;;;;;;4.20;3.90;;;;;;;;;;4756955;29;21440;-88
2023/06/26 07:57:04;;;;;;;3.67;3.30;;;;;;;;;;4772135;30;20424;-88
2023/06/26 07:59:39;;;;;;;3.75;3.55;;;;;;;;;;4766778;30;20052;-88
2023/06/26 08:02:06;;;;;;;3.88;3.67;;;;;;;;;;4763487;30;20076;-89
2023/06/26 08:04:51;;;;;;;4.05;3.70;;;;;;;;;;4769331;30;20134;-88
2023/06/26 08:07:23;;;;;;;3.90;3.60;;;;;;;;;;4771339;30;20076;-89
2023/06/26 08:09:53;;;;;;;3.42;3.22;;;;;;;;;;4770789;30;20062;-88
2023/06/26 08:12:23;;;;;;;4.47;4.18;;;;;;;;;;4772134;30;20580;-88
2023/06/26 08:14:55;;;;;;;3.72;3.53;;;;;;;;;;4771425;30;20538;-89
2023/06/26 08:17:23;;;;;;;4.10;3.80;;;;;;;;;;4785947;30;20047;-88
2023/06/26 08:19:51;;;;;;;3.80;3.60;;;;;;;;;;4772808;30;20056;-89
2023/06/26 08:22:22;;;;;;;4.00;3.65;;;;;;;;;;4771390;30;20086;-89
2023/06/26 08:25:01;;;;;;;4.13;3.90;;;;;;;;;;4771174;30;20060;-88
2023/06/26 08:27:29;;;;;;;3.60;3.40;;;;;;;;;;4770441;30;20055;-88
2023/06/26 08:29:59;;;;;;;3.67;3.47;;;;;;;;;;4773447;29;20103;-88
2023/06/26 08:32:26;;;;;;;3.88;3.67;;;;;;;;;;4771194;30;20039;-88
2023/06/26 08:34:57;;;;;;;3.78;3.58;;;;;;;;;;4777529;30;20057;-88
2023/06/26 08:37:32;;;;;;;3.80;3.60;;;;;;;;;;4773230;30;20070;-89
2023/06/26 08:40:08;;;;;;;3.75;3.55;;;;;;;;;;4771845;30;20062;-88
2023/06/26 08:42:37;;;;;;;3.70;3.50;;;;;;;;;;4769952;30;20051;-89
2023/06/26 08:45:18;;;;;;;4.00;3.70;;;;;;;;;;4770533;30;20080;-89
2023/06/26 08:47:46;;;;;;;4.00;3.80;;;;;;;;;;4771144;30;20397;-89
2023/06/26 08:50:20;;;;;;;4.03;3.73;;;;;;;;;;4771723;30;20071;-89
2023/06/26 08:52:52;;;;;;;3.30;3.10;;;;;;;;;;4771835;30;20833;-89
2023/06/26 08:55:28;;;;;;;4.73;3.50;;;;;;;;;;4771534;30;20116;-89
2023/06/26 08:58:01;;;;;;;4.05;3.85;;;;;;;;;;4772286;30;20294;-89
2023/06/26 09:00:33;;;;;;;3.92;3.63;;;;;;;;;;4771222;30;20062;-89
2023/06/26 09:03:06;;;;;;;3.92;3.65;;;;;;;;;;4770582;30;20146;-89
2023/06/26 09:05:38;;;;;;;3.80;3.50;;;;;;;;;;4770365;30;20058;-89
2023/06/26 09:08:08;;;;;;;3.65;3.45;;;;;;;;;;4769374;29;20066;-88
2023/06/26 09:10:43;;;;;;;4.20;3.80;;;;;;;;;;4769669;30;20411;-88
2023/06/26 09:13:17;;;;;;;3.90;3.70;;;;;;;;;;4768768;30;20052;-89
2023/06/26 09:15:59;;;;;;;3.80;3.60;;;;;;;;;;4771204;30;20123;-88
2023/06/26 09:18:35;;;;;;;4.20;3.90;;;;;;;;;;4763655;30;20047;-89
2023/06/26 09:21:17;;;;;;;3.40;3.20;;;;;;;;;;4770500;30;20063;-89
2023/06/26 09:23:48;;;;;;;3.40;3.20;;;;;;;;;;4767709;30;20056;-89
2023/06/26 09:26:33;;;;;;;;;;;;;;;;;;;;;
2023/06/26 09:29:38;;;;;;;3.83;3.60;;;;;;;;;;4769427;30;20066;-89
2023/06/26 09:32:10;;;;;;;3.58;3.38;;;;;;;;;;4770346;30;20055;-88
2023/06/26 09:34:55;;;;;;;3.97;3.67;;;;;;;;;;4771029;30;20086;-89
2023/06/26 09:37:41;;;;;;;4.28;3.97;;;;;;;;;;4770390;30;20047;-88
2023/06/26 09:40:47;;;;;;;4.10;3.90;;;;;;;;;;4768707;30;20055;-88
2023/06/26 09:43:31;;;;;;;;;;;;;;;;;;4770297;30;20466;-89
2023/06/26 09:46:37;;;;;;;3.60;3.30;;;;;;;;;;4767562;30;19926;-88
2023/06/26 09:49:23;;;;;;;3.72;3.53;;;;;;;;;;4769003;30;20139;-88
2023/06/26 09:51:53;;;;;;;3.30;3.10;;;;;;;;;;4769805;30;20419;-89
2023/06/26 09:54:34;;;;;;;;;;;;;;;;;;;;;
2023/06/26 09:57:11;;;;;;;3.33;3.13;;;;;;;;;;4767613;30;20471;-89
2023/06/26 09:59:46;;;;;;;3.30;3.10;;;;;;;;;;4759630;30;20051;-89
2023/06/26 10:02:22;;;;;;;3.50;3.30;;;;;;;;;;4769068;30;20135;-89
2023/06/26 10:04:57;;;;;;;4.00;3.70;;;;;;;;;;4769841;30;20082;-89
2023/06/26 10:07:46;;;;;;;4.43;4.13;;;;;;;;;;4765647;30;20457;-89
2023/06/26 10:10:19;;;;;;;3.22;3.03;;;;;;;;;;4767594;30;20059;-89
2023/06/26 10:12:54;;;;;;;3.72;3.42;;;;;;;;;;4772462;30;20693;-89
2023/06/26 10:15:29;;;;;;;3.40;3.10;;;;;;;;;;4767333;30;20056;-89
2023/06/26 10:18:03;;;;;;;3.47;3.28;;;;;;;;;;4768917;30;20551;-89
2023/06/26 10:21:09;;;;;;;2.85;2.67;;;;;;;;;;4769587;30;20052;-89
2023/06/26 10:24:05;;;;;;;3.15;2.95;;;;;;;;;;4765065;30;20060;-89
2023/06/26 10:26:47;;;;;;;3.20;3.00;;;;;;;;;;4767815;30;20401;-89
2023/06/26 10:29:40;;;;;;;3.60;3.30;;;;;;;;;;4769226;30;20059;-89
2023/06/26 10:32:38;;;;;;;3.38;3.17;;;;;;;;;;4772247;30;20185;-89
2023/06/26 10:35:07;;;;;;;3.15;2.95;;;;;;;;;;4773964;29;20052;-89
2023/06/26 10:38:01;;;;;;;3.33;3.03;;;;;;;;;;4770104;30;20580;-89
2023/06/26 10:40:48;;;;;;;4.32;4.03;;;;;;;;;;4773205;30;20111;-89
2023/06/26 10:43:33;;;;;;;3.95;3.33;;;;;;;;;;4772939;30;20086;-89
2023/06/26 10:46:29;;;;;;;3.60;3.40;;;;;;;;;;4756944;30;20063;-89
2023/06/26 10:49:15;;;;;;;3.20;3.00;;;;;;;;;;4755405;30;20067;-88
2023/06/26 10:52:11;;;;;;;3.30;3.10;;;;;;;;;;4763229;30;20052;-88
2023/06/26 10:55:09;;;;;;;3.10;2.90;;;;;;;;;;4773944;30;20130;-89
2023/06/26 10:57:52;;;;;;;2.97;2.88;;;;;;;;;;4758675;30;20129;-89
2023/06/26 11:00:30;;;;;;;3.70;3.50;;;;;;;;;;4770674;30;20075;-89
2023/06/26 11:03:23;;;;;;;3.33;3.13;;;;;;;;;;4771292;30;20063;-89
2023/06/26 11:06:11;;;;;;;3.30;3.10;;;;;;;;;;4770027;30;20160;-89
2023/06/26 11:09:00;;;;;;;3.47;3.28;;;;;;;;;;4766199;30;20140;-89
2023/06/26 11:12:18;;;;;;;3.38;3.17;;;;;;;;;;4773540;30;20052;-89
2023/06/26 11:15:31;;;;;;;3.60;3.40;;;;;;;;;;4772963;30;20203;-90
2023/06/26 11:18:24;;;;;;;4.18;3.78;;;;;;;;;;4768077;30;20091;-90
2023/06/26 11:21:09;;;;;;;2.90;2.70;;;;;;;;;;4769608;30;20130;-90
2023/06/26 11:23:48;;;;;;;3.40;3.20;;;;;;;;;;4769639;30;20093;-89
2023/06/26 11:26:18;;;;;;;4.32;3.40;;;;;;;;;;4769044;30;20135;-90
2023/06/26 11:28:55;;;;;;;3.38;3.08;;;;;;;;;;4769928;30;20052;-90
2023/06/26 11:31:27;;;;;;;2.60;2.50;;;;;;;;;;4771055;30;20055;-90
2023/06/26 11:34:27;;;;;;;3.20;3.00;;;;;;;;;;4755909;30;20513;-90
2023/06/26 11:37:07;;;;;;;2.78;2.67;;;;;;;;;;4767267;30;20523;-90
2023/06/26 11:39:57;;;;;;;3.25;3.05;;;;;;;;;;4765996;30;20055;-89
2023/06/26 11:42:47;;;;;;;2.60;2.50;;;;;;;;;;4744195;30;20059;-90
2023/06/26 11:45:30;;;;;;;2.33;2.22;;;;;;;;;;4768931;30;20064;-89
2023/06/26 11:48:08;;;;;;;2.30;2.20;;;;;;;;;;4769581;30;20060;-90
2023/06/26 11:50:44;;;;;;;2.33;2.20;;;;;;;;;;4765476;30;20474;-90
2023/06/26 11:53:29;;;;;;;2.38;2.17;;;;;;;;;;4762027;30;20507;-91
2023/06/26 11:56:28;;;;;;;;;;;;;;;;;;;;;
2023/06/26 11:59:14;;;;;;;2.60;2.50;;;;;;;;;;4770814;30;20420;-91
2023/06/26 12:02:14;;;;;;;2.65;2.55;;;;;;;;;;4768426;30;20131;-91
2023/06/26 12:04:46;;;;;;;2.25;2.15;;;;;;;;;;4766717;30;20063;-91
2023/06/26 12:07:28;;;;;;;2.10;2.00;;;;;;;;;;4772743;30;20082;-90
2023/06/26 12:10:29;;;;;;;2.38;2.28;;;;;;;;;;4751627;30;20600;-90
2023/06/26 12:13:21;;;;;;;2.35;2.25;;;;;;;;;;4723464;30;20161;-90
2023/06/26 12:16:01;;;;;;;2.25;2.15;;;;;;;;;;4770319;30;20143;-91
2023/06/26 12:19:08;;;;;;;;;;;;;;;;;;;;;
2023/06/26 12:22:10;;;;;;;2.42;2.30;;;;;;;;;;4757336;30;20071;-91
2023/06/26 12:24:48;;;;;;;2.75;2.58;;;;;;;;;;4760975;30;20056;-91
2023/06/26 12:27:33;;;;;;;2.63;2.53;;;;;;;;;;4760143;30;20546;-90
2023/06/26 12:30:04;;;;;;;;;;;;;;;;;;4744522;30;20052;-91
2023/06/26 12:32:33;;;;;;;2.72;2.63;;;;;;;;;;4770131;30;19929;-91
2023/06/26 12:35:28;;;;;;;2.00;1.90;;;;;;;;;;4764808;30;20401;-91
2023/06/26 12:38:15;;;;;;;;;;;;;;;;;;;;;
2023/06/26 12:41:00;;;;;;;2.45;2.35;;;;;;;;;;4766418;30;20051;-90
2023/06/26 12:43:56;;;;;;;2.20;2.10;;;;;;;;;;4761762;30;20140;-91
2023/06/26 12:46:38;;;;;;;2.60;2.50;;;;;;;;;;4769122;30;20099;-90
2023/06/26 12:49:20;;;;;;;2.50;2.40;;;;;;;;;;4769992;30;20492;-90
2023/06/26 12:52:02;;;;;;;2.30;2.20;;;;;;;;;;4770753;30;20055;-91
2023/06/26 12:54:40;;;;;;;2.15;2.05;;;;;;;;;;4764572;30;20523;-90
2023/06/26 12:57:54;;;;;;;2.10;2.00;;;;;;;;;;4763797;30;20143;-91
2023/06/26 13:00:58;;;;;;;2.40;2.30;;;;;;;;;;4782386;30;20048;-91
2023/06/26 13:03:57;;;;;;;2.65;2.55;;;;;;;;;;4766998;30;20048;-90
2023/06/26 13:07:15;;;;;;;2.85;2.65;;;;;;;;;;4696817;30;20046;-90
2023/06/26 13:09:50;;;;;;;2.42;2.33;;;;;;;;;;4698640;30;20370;-90
2023/06/26 13:12:21;;;;;;;2.67;2.53;;;;;;;;;;4759368;30;20036;-90
2023/06/26 13:14:53;;;;;;;2.50;2.40;;;;;;;;;;4768138;30;20090;-91
2023/06/26 13:17:34;;;;;;;2.50;2.40;;;;;;;;;;4771719;30;20051;-91
2023/06/26 13:20:21;;;;;;;2.65;2.55;;;;;;;;;;4769600;30;20043;-91
2023/06/26 13:23:18;;;;;;;2.40;2.30;;;;;;;;;;4766920;30;20056;-91
2023/06/26 13:25:52;;;;;;;2.25;2.15;;;;;;;;;;4767002;30;20055;-91
2023/06/26 13:28:53;;;;;;;2.40;2.30;;;;;;;;;;4768154;30;20127;-91
2023/06/26 13:31:30;;;;;;;2.20;2.10;;;;;;;;;;4768447;30;20060;-91
2023/06/26 13:34:36;;;;;;;2.20;2.10;;;;;;;;;;4768263;30;20047;-91
2023/06/26 13:37:07;;;;;;;2.30;2.20;;;;;;;;;;4772406;29;20052;-91
2023/06/26 13:39:40;;;;;;;2.30;2.20;;;;;;;;;;4768895;30;20051;-91
2023/06/26 13:42:17;;;;;;;2.38;2.28;;;;;;;;;;4768926;30;20147;-91
2023/06/26 13:44:59;;;;;;;2.30;2.20;;;;;;;;;;4767987;30;20512;-91
2023/06/26 13:47:40;;;;;;;2.15;2.05;;;;;;;;;;4768878;30;20051;-91
2023/06/26 13:50:11;;;;;;;2.10;2.00;;;;;;;;;;4775098;30;20119;-90
2023/06/26 13:52:45;;;;;;;2.10;2.00;;;;;;;;;;4754920;30;20138;-91
2023/06/26 13:55:17;;;;;;;1.95;1.85;;;;;;;;;;4764727;30;20059;-90
2023/06/26 13:57:47;;;;;;;2.00;1.95;;;;;;;;;;4765747;30;20052;-89
2023/06/26 14:00:15;;;;;;;2.30;2.20;;;;;;;;;;4768319;30;20051;-90
2023/06/26 14:02:51;;;;;;;1.85;1.83;;;;;;;;;;4763533;30;20059;-90
2023/06/26 14:05:19;;;;;;;1.70;1.70;;;;;;;;;;4763481;30;20105;-90
2023/06/26 14:08:00;;;;;;;2.00;1.90;;;;;;;;;;4764951;30;20075;-90
2023/06/26 14:10:38;;;;;;;2.03;1.92;;;;;;;;;;4769603;30;20047;-90
2023/06/26 14:13:17;;;;;;;1.90;1.90;;;;;;;;;;4767152;30;20134;-91
2023/06/26 14:15:52;;;;;;;2.40;2.30;;;;;;;;;;4770805;30;20116;-92
2023/06/26 14:18:23;;;;;;;2.25;2.20;;;;;;;;;;4768071;30;20047;-89
2023/06/26 14:20:56;;;;;;;2.40;2.30;;;;;;;;;;4768835;30;20112;-90
2023/06/26 14:23:24;;;;;;;2.70;2.60;;;;;;;;;;4767682;30;20048;-90
2023/06/26 14:25:54;;;;;;;2.25;2.15;;;;;;;;;;4744247;30;20055;-90
2023/06/26 14:28:25;;;;;;;2.30;2.20;;;;;;;;;;4769027;30;20063;-90
2023/06/26 14:30:56;;;;;;;2.28;2.17;;;;;;;;;;4770333;30;20159;-90
2023/06/26 14:33:23;;;;;;;2.55;2.30;;;;;;;;;;4769209;30;20040;-91
2023/06/26 14:35:55;;;;;;;2.63;2.53;;;;;;;;;;4771617;29;20056;-90
2023/06/26 14:38:27;;;;;;;2.50;2.40;;;;;;;;;;4761470;30;20048;-90
2023/06/26 14:40:55;;;;;;;2.72;2.63;;;;;;;;;;4768777;30;20083;-90
2023/06/26 14:43:23;;;;;;;2.80;2.60;;;;;;;;;;4783989;30;20073;-90
2023/06/26 14:45:56;;;;;;;2.35;2.25;;;;;;;;;;4770068;30;20056;-90
2023/06/26 14:48:24;;;;;;;2.45;2.35;;;;;;;;;;4768864;30;20163;-91
2023/06/26 14:51:00;;;;;;;2.45;2.25;;;;;;;;;;4771001;30;20055;-91
2023/06/26 14:53:30;;;;;;;2.35;2.25;;;;;;;;;;4766985;30;20056;-90
2023/06/26 14:56:02;;;;;;;2.90;2.20;;;;;;;;;;4774562;30;20048;-90
2023/06/26 14:58:32;;;;;;;4.53;2.08;;;;;;;;;;4772890;30;20052;-91
2023/06/26 15:01:02;;;;;;;2.45;2.35;;;;;;;;;;4770046;30;20078;-91
2023/06/26 15:03:30;;;;;;;2.38;2.28;;;;;;;;;;4766890;30;20511;-90
2023/06/26 15:05:57;;;;;;;2.28;2.17;;;;;;;;;;4762375;30;20048;-91
2023/06/26 15:08:27;;;;;;;;;;;;;;;;;;4773438;30;20099;-91
2023/06/26 15:10:57;;;;;;;3.85;2.55;;;;;;;;;;4767571;30;19947;-90
2023/06/26 15:13:29;;;;;;;2.70;2.60;;;;;;;;;;4764606;30;20477;-90
2023/06/26 15:15:59;;;;;;;2.50;2.40;;;;;;;;;;4766242;30;20052;-90
2023/06/26 15:18:27;;;;;;;2.00;1.90;;;;;;;;;;4771173;30;20054;-90
2023/06/26 15:21:00;;;;;;;2.50;2.40;;;;;;;;;;4771460;30;20052;-90
2023/06/26 15:23:29;;;;;;;2.55;2.45;;;;;;;;;;4763953;30;20142;-90
2023/06/26 15:25:56;;;;;;;2.50;2.40;;;;;;;;;;4774157;30;20139;-92
2023/06/26 15:28:24;;;;;;;2.38;2.28;;;;;;;;;;4772692;30;20398;-90